Time;durP1;ratioP1;P1;durP2;ratioP2;P2;SDS_P1;SDS_P2;PMS_P1;PMS_P2;Temp;Humidity;BMP_temperature;BMP_pressure;BME280_temperature;BME280_humidity;BME280_pressure;Samples;Min_cycle;Max_cycle;Signal;HPM_P1;HPM_P2
2022/09/18 00:00:00;;;;;;;9.20;1.73;;;11.10;99.90;;;;;;5056385;28;20505;-77
2022/09/18 00:02:26;;;;;;;8.02;1.60;;;11.10;99.90;;;;;;5040502;28;20056;-77
2022/09/18 00:04:52;;;;;;;5.30;0.85;;;11.10;99.90;;;;;;5038130;28;20048;-75
2022/09/18 00:07:18;;;;;;;5.55;0.75;;;11.10;99.90;;;;;;5035443;28;20119;-75
2022/09/18 00:09:44;;;;;;;4.88;0.88;;;11.00;99.90;;;;;;5035108;28;20517;-76
2022/09/18 00:12:10;;;;;;;11.85;1.00;;;11.10;99.90;;;;;;5037186;28;20045;-75
2022/09/18 00:14:36;;;;;;;6.25;1.38;;;11.10;99.90;;;;;;5053361;28;20495;-75
2022/09/18 00:17:02;;;;;;;6.78;1.10;;;11.00;99.90;;;;;;5054606;28;20040;-76
2022/09/18 00:19:27;;;;;;;3.13;0.80;;;11.10;99.90;;;;;;5049965;28;20475;-81
2022/09/18 00:21:53;;;;;;;6.83;0.90;;;11.10;99.90;;;;;;5017913;28;20041;-74
2022/09/18 00:24:21;;;;;;;8.73;0.70;;;11.10;99.90;;;;;;5056045;28;20474;-76
2022/09/18 00:26:47;;;;;;;3.00;0.50;;;11.00;99.90;;;;;;5025048;28;20386;-75
2022/09/18 00:29:14;;;;;;;6.95;0.70;;;11.10;99.90;;;;;;5056682;28;20075;-75
2022/09/18 00:31:39;;;;;;;9.70;0.73;;;11.10;99.90;;;;;;5042587;28;20040;-74
2022/09/18 00:34:09;;;;;;;2.43;0.90;;;11.10;99.90;;;;;;5043849;28;20166;-75
2022/09/18 00:36:36;;;;;;;3.13;0.82;;;11.00;99.90;;;;;;5046440;28;20361;-75
2022/09/18 00:39:02;;;;;;;3.58;1.13;;;11.10;99.90;;;;;;5041801;28;20072;-75
2022/09/18 00:41:34;;;;;;;2.50;0.70;;;11.00;99.90;;;;;;5042897;28;20632;-79
2022/09/18 00:44:27;;;;;;;4.88;0.73;;;11.00;99.90;;;;;;5033944;28;20643;-75
2022/09/18 00:46:53;;;;;;;9.07;0.98;;;11.00;99.90;;;;;;5041761;28;20505;-75
2022/09/18 00:49:24;;;;;;;6.53;1.37;;;11.10;99.90;;;;;;5045466;28;20171;-75
2022/09/18 00:51:53;;;;;;;3.60;0.88;;;11.00;99.90;;;;;;5037918;28;20350;-75
2022/09/18 00:54:24;;;;;;;3.28;0.57;;;11.00;99.90;;;;;;5044382;28;20063;-75
2022/09/18 00:56:52;;;;;;;4.85;0.88;;;11.10;99.90;;;;;;5044649;28;20044;-75
2022/09/18 00:59:25;;;;;;;6.93;1.33;;;11.10;99.90;;;;;;5045408;28;20405;-75
2022/09/18 01:01:50;;;;;;;2.75;0.40;;;11.10;99.90;;;;;;5045224;28;20127;-75
2022/09/18 01:04:16;;;;;;;6.23;1.07;;;11.10;99.90;;;;;;5061401;28;20124;-75
2022/09/18 01:06:48;;;;;;;4.07;0.50;;;11.10;99.90;;;;;;5045008;28;20388;-75
2022/09/18 01:09:26;;;;;;;3.55;0.60;;;11.10;99.90;;;;;;5050129;28;20071;-75
2022/09/18 01:12:33;;;;;;;2.38;0.43;;;11.20;99.90;;;;;;5064360;28;20429;-75
2022/09/18 01:15:24;;;;;;;3.28;0.75;;;11.20;99.90;;;;;;5048119;28;20055;-75
2022/09/18 01:18:34;;;;;;;4.10;1.00;;;11.20;99.90;;;;;;5047938;28;20502;-75
2022/09/18 01:21:13;;;;;;;4.00;0.95;;;11.20;99.90;;;;;;5042602;28;20036;-76
2022/09/18 01:23:51;;;;;;;4.45;0.85;;;11.20;99.90;;;;;;5058669;28;20062;-75
2022/09/18 01:26:37;;;;;;;7.82;1.05;;;11.30;99.90;;;;;;5060684;28;20414;-75
2022/09/18 01:29:24;;;;;;;4.90;0.65;;;11.30;99.90;;;;;;5062261;28;20449;-75
2022/09/18 01:32:16;;;;;;;6.50;1.00;;;11.30;99.90;;;;;;5045553;28;20051;-75
2022/09/18 01:34:54;;;;;;;1.50;0.50;;;11.20;99.90;;;;;;5038053;28;20041;-76
2022/09/18 01:37:40;;;;;;;7.68;0.77;;;11.30;99.90;;;;;;5066385;28;20048;-76
2022/09/18 01:40:22;;;;;;;3.97;0.80;;;11.30;99.90;;;;;;5037817;28;20398;-75
2022/09/18 01:42:49;;;;;;;7.25;0.95;;;11.20;99.90;;;;;;5044709;28;20536;-74
2022/09/18 01:45:27;;;;;;;4.60;0.65;;;11.30;99.90;;;;;;5065391;28;20044;-75
2022/09/18 01:48:21;;;;;;;2.50;0.60;;;11.30;99.90;;;;;;5055997;28;20048;-75
2022/09/18 01:50:54;;;;;;;3.38;0.70;;;11.30;99.90;;;;;;5037304;28;20044;-75
2022/09/18 01:53:35;;;;;;;5.57;0.60;;;11.30;99.90;;;;;;5062941;22;20045;-71
2022/09/18 01:56:20;;;;;;;6.10;1.10;;;11.40;99.90;;;;;;5041777;28;20176;-71
2022/09/18 01:58:49;;;;;;;7.22;0.95;;;11.40;99.90;;;;;;5044541;28;20136;-71
2022/09/18 02:01:18;;;;;;;1.42;0.45;;;11.40;99.90;;;;;;5028885;28;20416;-71
2022/09/18 02:03:59;;;;;;;4.78;0.57;;;11.40;99.90;;;;;;5025207;28;20056;-71
2022/09/18 02:06:32;;;;;;;4.88;0.70;;;11.40;99.90;;;;;;5010169;28;20159;-71
2022/09/18 02:09:00;;;;;;;3.63;0.50;;;11.50;99.90;;;;;;5045320;28;20514;-71
2022/09/18 02:11:26;;;;;;;8.82;0.80;;;11.50;99.90;;;;;;5045301;28;20057;-71
2022/09/18 02:14:09;;;;;;;6.88;0.77;;;11.40;99.90;;;;;;5010519;28;20112;-71
2022/09/18 02:16:45;;;;;;;8.55;1.35;;;11.50;99.90;;;;;;5024628;28;20060;-71
2022/09/18 02:19:18;;;;;;;3.53;1.13;;;11.50;99.90;;;;;;5041848;28;20036;-71
2022/09/18 02:21:47;;;;;;;4.03;0.82;;;11.50;99.90;;;;;;5032697;28;20040;-71
2022/09/18 02:24:17;;;;;;;10.40;1.15;;;11.50;99.90;;;;;;5045032;28;20090;-72
2022/09/18 02:26:44;;;;;;;5.07;1.20;;;11.50;99.90;;;;;;5042969;28;20060;-71
2022/09/18 02:29:12;;;;;;;5.82;1.42;;;11.50;99.90;;;;;;5041268;28;20041;-71
2022/09/18 02:31:39;;;;;;;2.70;0.80;;;11.50;99.90;;;;;;5047500;28;20120;-71
2022/09/18 02:34:07;;;;;;;4.45;0.50;;;11.50;99.90;;;;;;5047116;28;20094;-71
2022/09/18 02:36:49;;;;;;;1.55;0.50;;;11.50;99.90;;;;;;5040752;28;20064;-71
2022/09/18 02:39:46;;;;;;;5.00;0.82;;;11.40;99.90;;;;;;5025889;28;20347;-71
2022/09/18 02:42:14;;;;;;;6.50;0.80;;;11.40;99.90;;;;;;5036143;28;20040;-72
2022/09/18 02:45:07;;;;;;;3.47;0.75;;;11.40;99.90;;;;;;5042719;28;20436;-71
2022/09/18 02:47:45;;;;;;;3.90;0.80;;;11.40;99.90;;;;;;5039953;28;20033;-71
2022/09/18 02:50:14;;;;;;;6.38;0.60;;;11.40;99.90;;;;;;5039743;28;20136;-71
2022/09/18 02:52:59;;;;;;;9.77;1.05;;;11.30;99.90;;;;;;5021429;28;20120;-71
2022/09/18 02:55:28;;;;;;;2.22;0.68;;;11.30;99.90;;;;;;5039661;28;20052;-71
2022/09/18 02:57:57;;;;;;;5.07;0.70;;;11.30;99.90;;;;;;5043747;28;20140;-72
2022/09/18 03:00:26;;;;;;;4.13;0.98;;;11.30;99.90;;;;;;5043974;28;20270;-71
2022/09/18 03:02:55;;;;;;;9.52;0.63;;;11.30;99.90;;;;;;5027613;28;20047;-71
2022/09/18 03:05:21;;;;;;;3.72;0.43;;;11.30;99.90;;;;;;5005419;28;20103;-71
2022/09/18 03:07:46;;;;;;;3.10;1.03;;;11.30;99.90;;;;;;5030298;28;20483;-71
2022/09/18 03:10:12;;;;;;;1.33;0.30;;;11.30;99.90;;;;;;5027042;28;20273;-71
2022/09/18 03:12:38;;;;;;;1.80;0.30;;;11.20;99.90;;;;;;5042353;28;20151;-72
2022/09/18 03:15:05;;;;;;;3.03;0.40;;;11.30;99.90;;;;;;5022999;28;20293;-72
2022/09/18 03:17:30;;;;;;;3.35;0.30;;;11.20;99.90;;;;;;5009569;28;20557;-71
2022/09/18 03:19:56;;;;;;;1.53;0.30;;;11.20;99.90;;;;;;5043119;28;20041;-71
2022/09/18 03:22:22;;;;;;;2.07;0.40;;;11.20;99.90;;;;;;5020354;28;20850;-71
2022/09/18 03:24:48;;;;;;;8.02;0.47;;;11.20;99.90;;;;;;5043032;28;20076;-72
2022/09/18 03:27:16;;;;;;;1.50;0.60;;;11.20;99.90;;;;;;5026292;28;20135;-71
2022/09/18 03:29:44;;;;;;;1.45;0.52;;;11.20;99.90;;;;;;5040957;28;20272;-71
2022/09/18 03:32:10;;;;;;;1.83;0.70;;;11.20;99.90;;;;;;5021956;28;20055;-72
2022/09/18 03:34:37;;;;;;;4.97;0.38;;;11.20;99.90;;;;;;5042340;28;20036;-71
2022/09/18 03:37:02;;;;;;;;;;;11.20;99.90;;;;;;5026037;28;20190;-71
2022/09/18 03:39:28;;;;;;;3.03;0.57;;;11.10;99.90;;;;;;5049167;28;19925;-71
2022/09/18 03:41:54;;;;;;;3.17;1.00;;;11.10;99.90;;;;;;5044190;28;20044;-71
2022/09/18 03:44:19;;;;;;;9.27;0.67;;;11.10;99.90;;;;;;5022424;28;20416;-71
2022/09/18 03:46:45;;;;;;;4.70;0.80;;;11.20;99.90;;;;;;5039181;28;20059;-71
2022/09/18 03:49:11;;;;;;;4.73;1.17;;;11.20;99.90;;;;;;5044509;28;20114;-71
2022/09/18 03:51:36;;;;;;;6.53;1.00;;;11.20;99.90;;;;;;5025970;28;20365;-71
2022/09/18 03:54:02;;;;;;;2.38;1.00;;;11.20;99.90;;;;;;5041503;28;20047;-72
2022/09/18 03:56:28;;;;;;;3.38;0.85;;;11.20;99.90;;;;;;5007892;28;20049;-71
2022/09/18 03:58:54;;;;;;;5.97;1.03;;;11.10;99.90;;;;;;5043502;28;20044;-71
2022/09/18 04:01:19;;;;;;;2.23;0.53;;;11.20;99.90;;;;;;5026921;28;20047;-71
2022/09/18 04:03:45;;;;;;;3.63;0.70;;;11.20;99.90;;;;;;5044089;28;20360;-71
2022/09/18 04:06:11;;;;;;;5.80;0.67;;;11.20;99.90;;;;;;5037984;28;20041;-71
2022/09/18 04:08:37;;;;;;;7.67;0.80;;;11.20;99.90;;;;;;5043008;28;20041;-71
2022/09/18 04:11:04;;;;;;;2.30;0.55;;;11.30;99.90;;;;;;5022394;28;20604;-71
2022/09/18 04:13:30;;;;;;;8.15;0.60;;;11.30;99.90;;;;;;5041992;28;20425;-71
2022/09/18 04:15:56;;;;;;;4.25;0.55;;;11.30;99.90;;;;;;5021180;28;20102;-71
2022/09/18 04:18:22;;;;;;;1.40;0.40;;;11.30;99.90;;;;;;5043591;28;20029;-71
2022/09/18 04:20:48;;;;;;;3.30;0.50;;;11.30;99.90;;;;;;5043060;28;20051;-71
2022/09/18 04:23:14;;;;;;;1.85;0.40;;;11.30;99.90;;;;;;5038453;28;20443;-71
2022/09/18 04:25:42;;;;;;;4.45;0.90;;;11.30;99.90;;;;;;5039491;28;20041;-71
2022/09/18 04:28:11;;;;;;;3.38;0.38;;;11.30;99.90;;;;;;5029962;28;20033;-72
2022/09/18 04:30:37;;;;;;;5.40;0.70;;;11.20;99.90;;;;;;5025284;28;20143;-71
2022/09/18 04:33:04;;;;;;;3.72;0.43;;;11.20;99.90;;;;;;5025409;28;20475;-71
2022/09/18 04:35:30;;;;;;;5.10;0.98;;;11.30;99.90;;;;;;5038612;28;20390;-71
2022/09/18 04:37:56;;;;;;;5.05;1.23;;;11.20;99.90;;;;;;5026753;28;20053;-71
2022/09/18 04:40:21;;;;;;;4.15;0.57;;;11.20;99.90;;;;;;5023263;28;20051;-71
2022/09/18 04:42:47;;;;;;;5.43;0.60;;;11.30;99.90;;;;;;5043670;28;20029;-72
2022/09/18 04:45:13;;;;;;;5.38;0.98;;;11.20;99.90;;;;;;5026452;28;20363;-71
2022/09/18 04:47:40;;;;;;;4.15;0.77;;;11.20;99.90;;;;;;5021476;28;20040;-71
2022/09/18 04:50:07;;;;;;;5.97;0.70;;;11.20;99.90;;;;;;5042520;28;20048;-71
2022/09/18 04:52:34;;;;;;;2.72;0.50;;;11.20;99.90;;;;;;5018260;28;20045;-71
2022/09/18 04:55:00;;;;;;;2.75;0.63;;;11.20;99.90;;;;;;5022039;28;20087;-72
2022/09/18 04:57:26;;;;;;;6.03;0.60;;;11.20;99.90;;;;;;5020181;28;20503;-72
2022/09/18 04:59:52;;;;;;;0.40;0.20;;;11.20;99.90;;;;;;5038743;28;20098;-71
2022/09/18 05:02:18;;;;;;;0.93;0.20;;;11.20;99.90;;;;;;5035238;28;20029;-71
2022/09/18 05:04:43;;;;;;;1.80;0.30;;;11.20;99.90;;;;;;5038738;28;20706;-71
2022/09/18 05:07:09;;;;;;;0.90;0.20;;;11.20;99.90;;;;;;5033233;28;20041;-71
2022/09/18 05:09:35;;;;;;;3.83;0.22;;;11.20;99.90;;;;;;5042473;28;20360;-71
2022/09/18 05:12:02;;;;;;;3.75;0.20;;;11.20;99.90;;;;;;5022715;28;20049;-71
2022/09/18 05:14:27;;;;;;;2.40;0.43;;;11.20;99.90;;;;;;5041403;28;20072;-71
2022/09/18 05:16:55;;;;;;;1.77;0.40;;;11.20;99.90;;;;;;5018989;28;20069;-71
2022/09/18 05:19:21;;;;;;;3.63;0.57;;;11.20;99.90;;;;;;5024305;28;20120;-72
2022/09/18 05:21:50;;;;;;;1.75;0.40;;;11.20;99.90;;;;;;5027978;28;20041;-71
2022/09/18 05:24:17;;;;;;;2.58;0.80;;;11.20;99.90;;;;;;5022119;28;20049;-72
2022/09/18 05:26:43;;;;;;;;;;;11.20;99.90;;;;;;5022625;28;20044;-71
2022/09/18 05:29:09;;;;;;;2.28;0.47;;;11.20;99.90;;;;;;5043541;28;19917;-71
2022/09/18 05:31:34;;;;;;;1.60;0.50;;;11.20;99.90;;;;;;5016380;28;20556;-71
2022/09/18 05:34:00;;;;;;;6.63;1.03;;;11.20;99.90;;;;;;5020496;28;20037;-72
2022/09/18 05:36:26;;;;;;;2.38;0.38;;;11.20;99.90;;;;;;5025390;28;20180;-71
2022/09/18 05:38:51;;;;;;;3.30;0.40;;;11.20;99.90;;;;;;5024616;28;20053;-70
2022/09/18 05:41:17;;;;;;;5.87;0.63;;;11.10;99.90;;;;;;5040797;28;20505;-71
2022/09/18 05:43:43;;;;;;;0.83;0.40;;;11.10;99.90;;;;;;5024595;28;20883;-71
2022/09/18 05:46:09;;;;;;;;;;;11.10;99.90;;;;;;5046292;28;20037;-71
2022/09/18 05:48:35;;;;;;;7.97;0.50;;;11.20;99.90;;;;;;5022092;28;20051;-72
2022/09/18 05:51:01;;;;;;;1.80;0.50;;;11.20;99.90;;;;;;5025991;28;20040;-71
2022/09/18 05:53:26;;;;;;;2.67;0.73;;;11.20;99.90;;;;;;5025749;28;20511;-71
2022/09/18 05:55:52;;;;;;;2.97;0.32;;;11.20;99.90;;;;;;5021877;28;20052;-71
2022/09/18 05:58:19;;;;;;;2.28;0.20;;;11.20;99.90;;;;;;5026974;28;20127;-71
2022/09/18 06:00:46;;;;;;;6.75;1.00;;;11.20;99.90;;;;;;5046086;28;20498;-71
2022/09/18 06:03:14;;;;;;;3.03;0.40;;;11.20;99.90;;;;;;5041867;28;20192;-71
2022/09/18 06:05:40;;;;;;;4.05;0.80;;;11.20;99.90;;;;;;5025874;28;20375;-71
2022/09/18 06:08:08;;;;;;;3.30;0.95;;;11.20;99.90;;;;;;5043217;28;20407;-71
2022/09/18 06:10:36;;;;;;;4.97;1.10;;;11.20;99.90;;;;;;5043479;28;20485;-71
2022/09/18 06:13:12;;;;;;;3.63;0.50;;;11.10;99.90;;;;;;5022844;28;20041;-71
2022/09/18 06:15:38;;;;;;;1.23;0.70;;;11.10;99.90;;;;;;5043300;28;20404;-71
2022/09/18 06:18:08;;;;;;;1.75;0.57;;;11.10;99.90;;;;;;5039381;28;20332;-71
2022/09/18 06:20:34;;;;;;;3.42;0.68;;;11.10;99.90;;;;;;5042018;28;20056;-71
2022/09/18 06:23:01;;;;;;;8.27;0.65;;;11.10;99.90;;;;;;5041726;28;20037;-71
2022/09/18 06:25:30;;;;;;;1.25;0.20;;;11.10;99.90;;;;;;5044580;28;20211;-71
2022/09/18 06:27:57;;;;;;;1.65;0.50;;;11.10;99.90;;;;;;5038210;28;20403;-72
2022/09/18 06:30:34;;;;;;;4.38;0.55;;;11.10;99.90;;;;;;5027535;28;20045;-72
2022/09/18 06:33:05;;;;;;;1.48;0.43;;;11.00;99.90;;;;;;5023086;28;20036;-71
2022/09/18 06:35:32;;;;;;;6.78;1.85;;;11.00;99.90;;;;;;5023585;28;20073;-71
2022/09/18 06:38:05;;;;;;;6.30;1.40;;;11.00;99.90;;;;;;5043853;28;20036;-71
2022/09/18 06:40:32;;;;;;;3.40;1.10;;;11.00;99.90;;;;;;5044672;28;20098;-72
2022/09/18 06:43:00;;;;;;;1.80;0.80;;;11.00;99.90;;;;;;5017156;28;20224;-71
2022/09/18 06:45:26;;;;;;;4.50;0.70;;;11.00;99.90;;;;;;5041911;28;20586;-71
2022/09/18 06:47:53;;;;;;;5.13;1.17;;;11.00;99.90;;;;;;5039216;28;20131;-71
2022/09/18 06:50:23;;;;;;;11.65;1.00;;;11.00;99.90;;;;;;5044070;28;20121;-71
2022/09/18 06:52:49;;;;;;;2.85;0.63;;;11.00;99.90;;;;;;5041722;28;20057;-71
2022/09/18 06:55:17;;;;;;;3.05;0.60;;;10.90;99.90;;;;;;5036069;28;20469;-71
2022/09/18 06:57:51;;;;;;;3.20;0.47;;;10.90;99.90;;;;;;5041818;28;20049;-71
2022/09/18 07:00:17;;;;;;;2.90;0.70;;;10.90;99.90;;;;;;5043683;28;20106;-71
2022/09/18 07:02:42;;;;;;;4.78;0.90;;;10.90;99.90;;;;;;5019852;28;20036;-71
2022/09/18 07:05:08;;;;;;;5.27;0.80;;;10.90;99.90;;;;;;5022993;28;20461;-72
2022/09/18 07:07:34;;;;;;;4.50;0.97;;;10.90;99.90;;;;;;5039136;28;20044;-71
2022/09/18 07:09:59;;;;;;;2.33;0.87;;;11.00;99.90;;;;;;5028598;28;20109;-71
2022/09/18 07:12:27;;;;;;;13.30;1.60;;;11.00;99.90;;;;;;5037922;28;20719;-71
2022/09/18 07:14:53;;;;;;;0.98;0.38;;;11.00;99.90;;;;;;5022753;28;20590;-71
2022/09/18 07:17:19;;;;;;;6.18;0.77;;;11.10;99.90;;;;;;5035054;28;20124;-71
2022/09/18 07:19:44;;;;;;;4.40;0.77;;;11.00;99.90;;;;;;5038265;28;20356;-72
2022/09/18 07:22:10;;;;;;;3.30;0.70;;;11.00;99.90;;;;;;5022935;28;20048;-71
2022/09/18 07:24:36;;;;;;;3.80;0.60;;;11.10;99.90;;;;;;5007693;28;20482;-71
2022/09/18 07:27:01;;;;;;;5.73;0.60;;;11.10;99.90;;;;;;5035017;28;20032;-71
2022/09/18 07:29:27;;;;;;;3.60;0.70;;;11.00;99.90;;;;;;5036062;28;20055;-71
2022/09/18 07:31:52;;;;;;;5.70;0.87;;;11.00;99.90;;;;;;5022089;28;20355;-72
2022/09/18 07:34:18;;;;;;;1.60;0.70;;;11.00;99.90;;;;;;5043041;28;20224;-72
2022/09/18 07:36:47;;;;;;;7.23;0.93;;;11.00;99.90;;;;;;5041181;28;20508;-71
2022/09/18 07:39:13;;;;;;;3.50;0.65;;;11.00;99.90;;;;;;5011584;28;20141;-72
2022/09/18 07:41:38;;;;;;;1.80;0.80;;;11.00;99.90;;;;;;5040137;28;20082;-72
2022/09/18 07:44:04;;;;;;;1.47;0.60;;;11.00;99.90;;;;;;5023184;28;20044;-72
2022/09/18 07:46:29;;;;;;;2.90;0.40;;;11.00;99.90;;;;;;5032558;28;20053;-71
2022/09/18 07:48:55;;;;;;;5.33;0.70;;;10.90;99.90;;;;;;5038953;28;20044;-72
2022/09/18 07:51:21;;;;;;;1.33;0.70;;;10.90;99.90;;;;;;5044644;28;20439;-72
2022/09/18 07:53:47;;;;;;;4.03;0.63;;;11.00;99.90;;;;;;5043149;28;20131;-72
2022/09/18 07:56:13;;;;;;;;;;;11.00;99.90;;;;;;5035940;28;20221;-72
2022/09/18 07:58:39;;;;;;;4.95;0.63;;;11.00;99.90;;;;;;5028358;28;19991;-72
2022/09/18 08:01:05;;;;;;;3.20;0.47;;;11.00;99.90;;;;;;5023659;28;20048;-72
2022/09/18 08:03:31;;;;;;;;;;;11.00;99.90;;;;;;5024893;28;20076;-72
2022/09/18 08:05:57;;;;;;;2.83;0.40;;;11.10;99.90;;;;;;5036150;28;20009;-72
2022/09/18 08:08:23;;;;;;;4.43;0.50;;;11.10;99.90;;;;;;5039667;28;20076;-72
2022/09/18 08:10:48;;;;;;;2.17;0.55;;;11.10;99.90;;;;;;5017650;28;20136;-72
2022/09/18 08:13:14;;;;;;;3.33;0.68;;;11.10;99.90;;;;;;5039171;28;20075;-71
2022/09/18 08:15:41;;;;;;;3.10;0.50;;;11.20;99.90;;;;;;5037548;28;20128;-72
2022/09/18 08:18:09;;;;;;;5.65;1.42;;;11.20;99.90;;;;;;5018293;28;20372;-71
2022/09/18 08:20:35;;;;;;;0.93;0.22;;;11.30;99.90;;;;;;5037566;28;20117;-72
2022/09/18 08:23:02;;;;;;;4.50;0.50;;;11.30;99.90;;;;;;5036404;28;20483;-72
2022/09/18 08:25:28;;;;;;;2.72;0.50;;;11.30;99.90;;;;;;5041563;28;20616;-71
2022/09/18 08:27:58;;;;;;;3.03;0.75;;;11.30;99.90;;;;;;5035654;28;20037;-72
2022/09/18 08:30:23;;;;;;;3.05;0.50;;;11.40;99.90;;;;;;5006430;28;20072;-72
2022/09/18 08:32:49;;;;;;;4.73;0.40;;;11.40;99.90;;;;;;5020751;28;20037;-71
2022/09/18 08:35:15;;;;;;;2.33;1.43;;;11.40;99.90;;;;;;5023429;28;20421;-71
2022/09/18 08:37:47;;;;;;;2.77;0.30;;;11.40;99.90;;;;;;5037470;28;20041;-71
2022/09/18 08:40:16;;;;;;;4.05;0.98;;;11.40;99.90;;;;;;5040346;28;20034;-72
2022/09/18 08:43:07;;;;;;;6.68;0.60;;;11.50;99.90;;;;;;5017039;28;20048;-72
2022/09/18 08:45:54;;;;;;;7.45;0.70;;;11.50;99.90;;;;;;5025863;28;20207;-72
2022/09/18 08:48:25;;;;;;;;;;;11.60;99.90;;;;;;5021736;28;20418;-72
2022/09/18 08:51:34;;;;;;;3.83;0.88;;;11.60;99.90;;;;;;5021818;28;19932;-72
2022/09/18 08:54:14;;;;;;;6.22;0.55;;;11.70;99.90;;;;;;5022316;28;20044;-72
2022/09/18 08:56:39;;;;;;;5.70;0.68;;;11.70;99.90;;;;;;5014990;28;20464;-72
2022/09/18 08:59:26;;;;;;;5.22;0.52;;;11.80;99.90;;;;;;5002903;28;20140;-72
2022/09/18 09:02:14;;;;;;;1.92;0.32;;;11.70;99.90;;;;;;5039733;28;20033;-72
2022/09/18 09:04:40;;;;;;;5.15;0.50;;;11.80;99.90;;;;;;5019134;28;20106;-72
2022/09/18 09:07:27;;;;;;;1.40;0.52;;;11.70;99.90;;;;;;5036561;28;20036;-72
2022/09/18 09:10:36;;;;;;;2.92;1.05;;;11.70;99.90;;;;;;5020362;28;20559;-72
2022/09/18 09:13:04;;;;;;;4.40;0.90;;;11.70;99.90;;;;;;5035696;28;20040;-74
2022/09/18 09:15:39;;;;;;;8.60;1.58;;;11.70;99.90;;;;;;5017591;28;20118;-73
2022/09/18 09:18:21;;;;;;;4.80;0.50;;;11.70;99.90;;;;;;5019991;28;20069;-72
2022/09/18 09:20:54;;;;;;;5.30;0.50;;;11.70;99.90;;;;;;5040047;28;20052;-72
2022/09/18 09:23:42;;;;;;;5.47;0.50;;;11.60;99.90;;;;;;5039485;28;20045;-72
2022/09/18 09:26:15;;;;;;;3.28;0.90;;;11.60;99.90;;;;;;5010631;28;20037;-72
2022/09/18 09:29:05;;;;;;;2.33;0.52;;;11.60;99.90;;;;;;5041741;28;20045;-72
2022/09/18 09:31:53;;;;;;;3.78;0.80;;;11.50;99.90;;;;;;5040470;28;20083;-72
2022/09/18 09:34:39;;;;;;;4.32;0.45;;;11.50;99.90;;;;;;5042418;28;20072;-72
2022/09/18 09:37:13;;;;;;;3.35;0.60;;;11.40;99.90;;;;;;5022369;28;20049;-72
2022/09/18 09:39:53;;;;;;;4.63;1.00;;;11.40;99.90;;;;;;5041487;28;20064;-72
2022/09/18 09:42:20;;;;;;;3.95;1.00;;;11.40;99.90;;;;;;5040254;28;20041;-72
2022/09/18 09:44:58;;;;;;;3.90;0.98;;;11.30;99.90;;;;;;5016746;28;20138;-72
2022/09/18 09:47:39;;;;;;;7.13;0.93;;;11.40;99.90;;;;;;5037419;28;20045;-72
2022/09/18 09:50:19;;;;;;;3.45;0.40;;;11.30;99.90;;;;;;5047151;28;20037;-72
2022/09/18 09:52:46;;;;;;;4.30;0.90;;;11.40;99.90;;;;;;5032252;28;20044;-72
2022/09/18 09:55:11;;;;;;;;;;;11.30;99.90;;;;;;5024203;28;20044;-72
2022/09/18 09:58:12;;;;;;;6.38;1.23;;;11.30;99.90;;;;;;5023736;28;19927;-72
2022/09/18 10:00:47;;;;;;;3.90;0.75;;;11.30;99.90;;;;;;4953277;28;20115;-71
2022/09/18 10:03:41;;;;;;;5.90;0.80;;;11.30;99.90;;;;;;5025426;28;20037;-72
2022/09/18 10:06:40;;;;;;;3.63;0.70;;;11.30;99.90;;;;;;5037978;28;20111;-72
2022/09/18 10:09:17;;;;;;;2.45;0.50;;;11.30;99.90;;;;;;5027953;28;20454;-71
2022/09/18 10:12:09;;;;;;;4.50;0.70;;;11.30;99.90;;;;;;5025409;28;20045;-72
2022/09/18 10:14:39;;;;;;;4.45;1.02;;;11.30;99.90;;;;;;5010759;28;20052;-72
2022/09/18 10:17:05;;;;;;;5.38;1.20;;;11.30;99.90;;;;;;5021196;28;20044;-72
2022/09/18 10:19:38;;;;;;;2.90;0.70;;;11.30;99.90;;;;;;5010689;28;20228;-72
2022/09/18 10:22:06;;;;;;;3.42;0.60;;;11.30;99.90;;;;;;5022233;28;20107;-72
2022/09/18 10:25:02;;;;;;;6.38;1.05;;;11.40;99.90;;;;;;5017421;28;20089;-72
2022/09/18 10:27:28;;;;;;;3.45;0.60;;;11.40;99.90;;;;;;5022402;28;20045;-72
2022/09/18 10:29:54;;;;;;;5.63;1.50;;;11.40;99.90;;;;;;5033884;28;20523;-72
2022/09/18 10:32:35;;;;;;;12.65;2.40;;;11.40;99.90;;;;;;5039362;28;20041;-72
2022/09/18 10:35:20;;;;;;;7.03;0.80;;;11.50;99.90;;;;;;4995664;28;20060;-72
2022/09/18 10:37:46;;;;;;;5.65;1.08;;;11.50;99.90;;;;;;5035527;28;20049;-72
2022/09/18 10:40:38;;;;;;;9.80;2.20;;;11.60;99.90;;;;;;5036710;28;20045;-72
2022/09/18 10:43:13;;;;;;;6.13;1.13;;;11.60;99.90;;;;;;5030836;28;20048;-72
2022/09/18 10:45:40;;;;;;;4.75;1.58;;;11.60;99.90;;;;;;5022949;28;20077;-72
2022/09/18 10:48:16;;;;;;;6.10;1.70;;;11.70;99.90;;;;;;5031262;28;20056;-72
2022/09/18 10:50:52;;;;;;;5.55;1.63;;;11.70;99.90;;;;;;5016820;28;20354;-72
2022/09/18 10:53:38;;;;;;;4.57;1.00;;;11.80;99.90;;;;;;5017467;28;20040;-72
2022/09/18 10:56:13;;;;;;;3.00;1.27;;;11.80;99.90;;;;;;5014469;28;20098;-72
2022/09/18 10:58:39;;;;;;;8.30;1.30;;;11.90;99.90;;;;;;5033652;28;20073;-72
2022/09/18 11:01:06;;;;;;;4.33;1.47;;;11.90;99.90;;;;;;5036672;28;20067;-72
2022/09/18 11:03:46;;;;;;;5.25;1.58;;;11.90;99.90;;;;;;5023064;28;20140;-72
2022/09/18 11:06:22;;;;;;;10.50;1.60;;;12.00;99.90;;;;;;5032916;28;20163;-72
2022/09/18 11:08:51;;;;;;;10.95;0.98;;;12.00;99.90;;;;;;5038548;28;20547;-72
2022/09/18 11:11:27;;;;;;;4.95;1.00;;;12.10;99.90;;;;;;5034865;28;20116;-72
2022/09/18 11:14:04;;;;;;;2.22;0.70;;;12.10;99.90;;;;;;5040177;28;20040;-73
2022/09/18 11:16:32;;;;;;;3.08;0.93;;;12.20;99.90;;;;;;5027625;28;20037;-72
2022/09/18 11:19:11;;;;;;;6.32;1.08;;;12.30;99.90;;;;;;5012037;28;20087;-72
2022/09/18 11:21:46;;;;;;;2.20;0.70;;;12.30;99.90;;;;;;5019664;28;20119;-72
2022/09/18 11:24:26;;;;;;;7.13;0.98;;;12.30;99.90;;;;;;5015238;28;20379;-73
2022/09/18 11:26:56;;;;;;;3.67;1.02;;;12.30;99.90;;;;;;5033600;28;20056;-73
2022/09/18 11:29:29;;;;;;;9.65;1.20;;;12.40;99.90;;;;;;5032607;28;20124;-74
2022/09/18 11:32:12;;;;;;;5.80;1.20;;;12.40;99.90;;;;;;4970897;28;20543;-73
2022/09/18 11:34:52;;;;;;;3.28;1.23;;;12.50;99.90;;;;;;4828440;28;20379;-73
2022/09/18 11:37:37;;;;;;;6.03;1.08;;;12.60;99.90;;;;;;4840517;28;20823;-72
2022/09/18 11:40:17;;;;;;;3.92;1.23;;;12.60;99.90;;;;;;4859347;28;20033;-73
2022/09/18 11:42:45;;;;;;;2.92;0.68;;;12.70;99.90;;;;;;5038523;28;20406;-72
2022/09/18 11:45:38;;;;;;;5.93;1.58;;;12.80;99.90;;;;;;5028133;28;20109;-72
2022/09/18 11:48:14;;;;;;;4.25;0.73;;;12.80;99.90;;;;;;5018227;28;20044;-72
2022/09/18 11:50:40;;;;;;;4.37;0.77;;;12.90;99.90;;;;;;5022936;28;20118;-72
2022/09/18 11:53:26;;;;;;;5.40;0.93;;;12.90;99.90;;;;;;5015722;28;20045;-74
2022/09/18 11:56:32;;;;;;;4.43;0.80;;;12.90;99.90;;;;;;5036675;28;20060;-72
2022/09/18 11:59:04;;;;;;;5.85;0.90;;;13.00;99.90;;;;;;5006087;28;20060;-73
2022/09/18 12:01:37;;;;;;;4.45;0.90;;;13.00;99.90;;;;;;5035855;28;20053;-72
2022/09/18 12:04:33;;;;;;;4.38;0.85;;;13.00;99.90;;;;;;5008162;28;20044;-72
2022/09/18 12:07:25;;;;;;;5.65;1.02;;;13.00;99.90;;;;;;5018011;28;20178;-72
2022/09/18 12:10:14;;;;;;;2.28;0.70;;;13.00;99.90;;;;;;5021601;28;20041;-72
2022/09/18 12:12:40;;;;;;;2.90;0.77;;;13.00;99.90;;;;;;5042815;28;20756;-72
2022/09/18 12:15:26;;;;;;;2.03;0.73;;;13.00;99.90;;;;;;4859394;28;20398;-73
2022/09/18 12:18:17;;;;;;;6.95;1.00;;;13.00;99.90;;;;;;4855069;28;20752;-73
2022/09/18 12:20:52;;;;;;;6.18;0.93;;;13.00;99.90;;;;;;5036786;28;20119;-73
2022/09/18 12:23:24;;;;;;;4.20;1.00;;;12.90;99.90;;;;;;5045663;28;20525;-71
2022/09/18 12:26:15;;;;;;;5.25;0.80;;;12.90;99.90;;;;;;4854157;28;20059;-72
2022/09/18 12:28:53;;;;;;;3.42;1.35;;;12.80;99.90;;;;;;5047235;28;20033;-72
2022/09/18 12:31:38;;;;;;;5.65;0.98;;;12.90;99.90;;;;;;5049568;28;20175;-72
2022/09/18 12:34:14;;;;;;;4.70;0.68;;;12.80;99.90;;;;;;5027176;28;20072;-72
2022/09/18 12:36:58;;;;;;;4.95;1.05;;;12.80;99.90;;;;;;5038177;28;20048;-73
2022/09/18 12:39:53;;;;;;;3.17;0.47;;;12.80;99.90;;;;;;4898497;28;20432;-73
2022/09/18 12:42:28;;;;;;;5.95;0.60;;;12.90;99.90;;;;;;4993139;28;20134;-72
2022/09/18 12:45:15;;;;;;;2.88;0.68;;;12.90;99.90;;;;;;5034775;28;20051;-72
2022/09/18 12:47:47;;;;;;;3.65;0.65;;;12.80;99.90;;;;;;4950320;28;20227;-72
2022/09/18 12:50:34;;;;;;;4.25;0.77;;;12.90;99.90;;;;;;4866367;28;20395;-72
2022/09/18 12:53:25;;;;;;;6.60;1.40;;;12.90;99.90;;;;;;4850043;28;20459;-74
2022/09/18 12:56:13;;;;;;;7.28;0.88;;;12.90;99.90;;;;;;5036625;28;20113;-72
2022/09/18 12:58:59;;;;;;;4.45;0.68;;;12.90;99.90;;;;;;4947439;28;20437;-74
2022/09/18 13:01:44;;;;;;;4.45;1.20;;;12.90;99.90;;;;;;4861725;28;20471;-71
2022/09/18 13:04:22;;;;;;;2.17;0.80;;;12.90;99.90;;;;;;5028856;28;20468;-70
2022/09/18 13:07:20;;;;;;;3.03;0.80;;;12.90;99.90;;;;;;4932406;28;20832;-71
2022/09/18 13:10:03;;;;;;;3.28;0.60;;;13.00;99.90;;;;;;4868454;28;20364;-71
2022/09/18 13:12:41;;;;;;;3.25;0.73;;;13.00;99.90;;;;;;5028672;28;20044;-72
2022/09/18 13:15:27;;;;;;;2.70;0.80;;;13.00;99.90;;;;;;5033948;28;20041;-72